Time;durP1;ratioP1;P1;durP2;ratioP2;P2;SDS_P1;SDS_P2;PMS_P1;PMS_P2;Temp;Humidity;BMP_temperature;BMP_pressure;BME280_temperature;BME280_humidity;BME280_pressure;Samples;Min_cycle;Max_cycle;Signal;HPM_P1;HPM_P2
2021/06/25 00:00:48;;;;;;;6.03;5.00;;;17.90;84.60;;;;;;5061321;28;20183;-73
2021/06/25 00:03:14;;;;;;;5.80;5.17;;;17.90;84.70;;;;;;5065008;28;20197;-73
2021/06/25 00:05:39;;;;;;;5.73;4.93;;;17.80;84.50;;;;;;5046788;28;20547;-73
2021/06/25 00:08:05;;;;;;;5.50;4.53;;;17.90;86.20;;;;;;5060975;28;20274;-73
2021/06/25 00:10:31;;;;;;;5.47;4.63;;;17.80;86.70;;;;;;5062196;28;20571;-73
2021/06/25 00:12:57;;;;;;;6.77;5.33;;;17.90;88.00;;;;;;5041296;28;20301;-73
2021/06/25 00:15:22;;;;;;;5.77;4.77;;;17.80;86.80;;;;;;5044252;28;20206;-73
2021/06/25 00:17:48;;;;;;;6.07;5.43;;;17.80;87.40;;;;;;5055300;28;20187;-73
2021/06/25 00:20:15;;;;;;;5.87;5.37;;;17.80;86.90;;;;;;5066549;28;20200;-74
2021/06/25 00:22:42;;;;;;;7.50;5.57;;;17.90;85.90;;;;;;5066941;28;20184;-73
2021/06/25 00:25:09;;;;;;;6.63;5.53;;;17.80;85.10;;;;;;5064193;28;20193;-73
2021/06/25 00:27:34;;;;;;;6.23;5.47;;;17.80;86.50;;;;;;5070855;28;20642;-73
2021/06/25 00:30:00;;;;;;;5.93;5.43;;;17.80;86.90;;;;;;5063229;28;20210;-73
2021/06/25 00:32:26;;;;;;;6.43;5.83;;;17.80;86.60;;;;;;5065494;28;20200;-73
2021/06/25 00:34:52;;;;;;;6.67;6.07;;;17.70;86.70;;;;;;5064325;28;20208;-73
2021/06/25 00:37:17;;;;;;;7.33;5.97;;;17.70;87.60;;;;;;5063543;28;20181;-73
2021/06/25 00:39:43;;;;;;;7.43;5.67;;;17.70;87.70;;;;;;5068455;28;20215;-73
2021/06/25 00:42:09;;;;;;;7.07;5.63;;;17.60;87.60;;;;;;5046353;28;20204;-73
2021/06/25 00:44:39;;;;;;;7.87;6.07;;;17.60;88.70;;;;;;5071472;28;20193;-73
2021/06/25 00:47:06;;;;;;;5.90;5.40;;;17.50;88.40;;;;;;5065240;28;20189;-73
2021/06/25 00:49:31;;;;;;;10.40;6.30;;;17.50;88.70;;;;;;5062807;28;20237;-73
2021/06/25 00:51:57;;;;;;;8.50;5.60;;;17.40;89.30;;;;;;5068318;28;20221;-73
2021/06/25 00:54:23;;;;;;;6.67;5.33;;;17.40;87.50;;;;;;5064272;28;20671;-73
2021/06/25 00:56:49;;;;;;;6.50;5.33;;;17.30;88.70;;;;;;5058808;28;20300;-73
2021/06/25 00:59:14;;;;;;;7.17;5.30;;;17.30;88.50;;;;;;5047761;28;20221;-73
2021/06/25 01:01:40;;;;;;;8.07;5.90;;;17.30;89.90;;;;;;5049586;28;20271;-73
2021/06/25 01:04:06;;;;;;;8.37;5.80;;;17.30;90.60;;;;;;5066394;28;20193;-73
2021/06/25 01:06:31;;;;;;;6.57;5.97;;;17.20;90.90;;;;;;5065864;28;20260;-73
2021/06/25 01:08:57;;;;;;;6.53;5.73;;;17.30;91.50;;;;;;5065952;28;20217;-73
2021/06/25 01:11:23;;;;;;;7.80;5.50;;;17.30;90.60;;;;;;5063102;28;20194;-73
2021/06/25 01:13:49;;;;;;;7.33;6.00;;;17.40;89.40;;;;;;5064940;28;20244;-73
2021/06/25 01:16:15;;;;;;;6.30;5.70;;;17.40;88.50;;;;;;5052356;28;20193;-73
2021/06/25 01:18:41;;;;;;;8.80;6.30;;;17.40;87.90;;;;;;5064685;28;20208;-73
2021/06/25 01:21:07;;;;;;;6.77;5.50;;;17.30;89.50;;;;;;5068787;28;20286;-73
2021/06/25 01:23:41;;;;;;;7.70;5.80;;;17.20;90.40;;;;;;5063671;28;20189;-73
2021/06/25 01:26:07;;;;;;;8.67;6.40;;;17.30;90.60;;;;;;5060050;28;20208;-73
2021/06/25 01:28:33;;;;;;;7.43;6.23;;;17.10;90.90;;;;;;5063004;28;20188;-73
2021/06/25 01:31:01;;;;;;;7.80;6.00;;;17.30;91.40;;;;;;5064507;28;20194;-73
2021/06/25 01:33:27;;;;;;;7.37;6.47;;;17.30;90.20;;;;;;5052174;28;20217;-73
2021/06/25 01:35:54;;;;;;;11.97;7.33;;;17.40;90.20;;;;;;5059055;28;20530;-73
2021/06/25 01:38:20;;;;;;;7.90;6.63;;;17.30;90.10;;;;;;5046317;28;20278;-73
2021/06/25 01:40:46;;;;;;;9.20;6.20;;;17.30;89.40;;;;;;5063167;28;20312;-73
2021/06/25 01:43:13;;;;;;;8.87;6.40;;;17.40;89.40;;;;;;5066479;28;20238;-73
2021/06/25 01:45:40;;;;;;;8.63;7.37;;;17.30;89.60;;;;;;5062922;28;20272;-73
2021/06/25 01:48:07;;;;;;;9.47;7.63;;;17.40;89.90;;;;;;5060992;28;20199;-73
2021/06/25 01:50:37;;;;;;;9.13;7.37;;;17.30;90.00;;;;;;5061679;28;20208;-73
2021/06/25 01:53:04;;;;;;;9.10;7.13;;;17.40;90.10;;;;;;5067229;28;20193;-73
2021/06/25 01:55:40;;;;;;;8.13;7.33;;;17.40;89.00;;;;;;5068331;28;20201;-73
2021/06/25 01:58:12;;;;;;;10.57;8.40;;;17.40;89.00;;;;;;5059644;28;20216;-73
2021/06/25 02:00:41;;;;;;;9.37;7.63;;;17.40;89.50;;;;;;5063533;28;20189;-73
2021/06/25 02:03:06;;;;;;;9.57;8.03;;;17.40;89.50;;;;;;5060833;28;20685;-73
2021/06/25 02:05:32;;;;;;;9.27;7.73;;;17.30;90.70;;;;;;5061150;28;20277;-73
2021/06/25 02:07:59;;;;;;;9.17;7.87;;;17.30;91.20;;;;;;5064246;28;20198;-73
2021/06/25 02:10:25;;;;;;;9.97;8.20;;;17.30;91.90;;;;;;5062372;28;20212;-73
2021/06/25 02:12:51;;;;;;;9.57;8.47;;;17.20;91.90;;;;;;5048211;28;20189;-73
2021/06/25 02:15:17;;;;;;;9.97;8.37;;;17.20;92.40;;;;;;5067285;28;20199;-73
2021/06/25 02:17:42;;;;;;;10.43;7.70;;;17.10;92.60;;;;;;5062332;28;20186;-73
2021/06/25 02:20:09;;;;;;;7.83;7.03;;;17.10;93.20;;;;;;5060435;28;20238;-73
2021/06/25 02:22:36;;;;;;;11.63;7.80;;;17.10;93.10;;;;;;5062753;28;20196;-73
2021/06/25 02:25:04;;;;;;;10.50;7.80;;;17.10;93.40;;;;;;5060094;28;20674;-73
2021/06/25 02:27:30;;;;;;;7.37;6.67;;;17.10;93.70;;;;;;5065854;28;20277;-73
2021/06/25 02:29:56;;;;;;;7.87;6.97;;;17.10;93.20;;;;;;5061220;28;20500;-73
2021/06/25 02:32:21;;;;;;;8.77;7.80;;;17.10;93.90;;;;;;5059089;28;20684;-73
2021/06/25 02:34:47;;;;;;;7.67;6.87;;;17.00;93.50;;;;;;5065097;28;20183;-73
2021/06/25 02:37:12;;;;;;;8.93;6.87;;;17.00;94.10;;;;;;5060978;28;20193;-73
2021/06/25 02:39:38;;;;;;;9.13;6.80;;;17.00;94.40;;;;;;5061402;28;20191;-72
2021/06/25 02:42:04;;;;;;;7.43;6.70;;;17.00;93.90;;;;;;5061204;28;20195;-72
2021/06/25 02:44:31;;;;;;;9.23;7.37;;;16.90;94.10;;;;;;5059517;28;20200;-72
2021/06/25 02:46:57;;;;;;;8.67;7.57;;;16.90;94.50;;;;;;5061697;28;20548;-72
2021/06/25 02:49:22;;;;;;;8.30;6.53;;;16.80;95.10;;;;;;5061850;28;20219;-72
2021/06/25 02:51:48;;;;;;;7.47;5.97;;;16.80;95.50;;;;;;5061689;28;20306;-72
2021/06/25 02:54:13;;;;;;;8.00;6.57;;;16.90;95.10;;;;;;5060416;28;20263;-72
2021/06/25 02:56:39;;;;;;;6.43;5.63;;;16.90;94.20;;;;;;5058772;28;20336;-72
2021/06/25 02:59:05;;;;;;;7.10;5.70;;;16.80;94.10;;;;;;5041317;28;20302;-73
2021/06/25 03:01:31;;;;;;;6.47;5.87;;;16.80;94.70;;;;;;5058042;28;20203;-73
2021/06/25 03:03:56;;;;;;;7.10;6.10;;;16.80;94.80;;;;;;5063966;28;20200;-72
2021/06/25 03:06:22;;;;;;;6.87;6.17;;;16.80;94.80;;;;;;5055756;28;20189;-72
2021/06/25 03:08:47;;;;;;;6.40;5.80;;;16.80;95.30;;;;;;5061850;28;20207;-73
2021/06/25 03:11:13;;;;;;;9.87;6.37;;;16.80;95.80;;;;;;5064290;28;20198;-73
2021/06/25 03:13:39;;;;;;;6.07;5.43;;;16.90;95.90;;;;;;5044736;28;20194;-72
2021/06/25 03:16:05;;;;;;;7.17;5.20;;;16.80;95.40;;;;;;5061705;28;20273;-72
2021/06/25 03:18:31;;;;;;;7.00;5.40;;;16.80;95.20;;;;;;5046897;28;20639;-73
2021/06/25 03:20:57;;;;;;;7.87;5.33;;;16.80;95.80;;;;;;5062801;28;20216;-72
2021/06/25 03:23:23;;;;;;;8.17;5.87;;;;;;;;;;5044968;28;20185;-72
2021/06/25 03:25:49;;;;;;;6.23;5.60;;;16.80;95.40;;;;;;5060557;28;20537;-72
2021/06/25 03:28:14;;;;;;;6.27;5.53;;;16.90;95.00;;;;;;5063016;28;20195;-73
2021/06/25 03:30:40;;;;;;;6.03;5.43;;;16.90;94.30;;;;;;5040080;28;20292;-72
2021/06/25 03:33:07;;;;;;;5.67;5.07;;;16.90;94.10;;;;;;5063542;28;20567;-72
2021/06/25 03:35:32;;;;;;;6.63;5.23;;;17.00;93.90;;;;;;5063149;28;20184;-73
2021/06/25 03:37:58;;;;;;;6.37;5.57;;;16.90;93.80;;;;;;5064426;28;20193;-72
2021/06/25 03:40:27;;;;;;;6.07;5.27;;;16.80;94.30;;;;;;5058080;28;21270;-73
2021/06/25 03:42:52;;;;;;;8.20;6.00;;;16.80;94.60;;;;;;5061124;28;20191;-73
2021/06/25 03:45:18;;;;;;;7.00;5.87;;;16.80;95.30;;;;;;5064912;28;20189;-73
2021/06/25 03:47:43;;;;;;;7.70;6.23;;;16.80;95.80;;;;;;5049663;28;20187;-72
2021/06/25 03:50:11;;;;;;;9.03;5.53;;;16.90;96.40;;;;;;5049873;28;20217;-72
2021/06/25 03:52:37;;;;;;;7.30;5.30;;;17.00;96.60;;;;;;5067054;28;20231;-72
2021/06/25 03:55:04;;;;;;;5.60;5.10;;;16.90;95.60;;;;;;5064425;28;20216;-72
2021/06/25 03:57:30;;;;;;;6.90;5.40;;;17.00;95.60;;;;;;5067351;28;20298;-72
2021/06/25 03:59:55;;;;;;;6.60;5.00;;;16.90;94.10;;;;;;5063651;28;20783;-72
2021/06/25 04:02:21;;;;;;;5.43;4.60;;;16.90;94.90;;;;;;5042316;28;20184;-73
2021/06/25 04:04:46;;;;;;;5.67;4.50;;;17.00;94.10;;;;;;5042920;28;20206;-73
2021/06/25 04:07:12;;;;;;;8.47;5.23;;;16.80;93.80;;;;;;5065271;28;20231;-73
2021/06/25 04:09:38;;;;;;;5.13;4.63;;;16.90;93.40;;;;;;5065161;28;20215;-72
2021/06/25 04:12:05;;;;;;;7.50;5.20;;;17.00;93.80;;;;;;5066977;28;20201;-73
2021/06/25 04:14:30;;;;;;;6.00;5.13;;;17.00;93.70;;;;;;5069492;28;20538;-72
2021/06/25 04:16:56;;;;;;;6.47;4.77;;;17.00;93.90;;;;;;5066887;28;20191;-73
2021/06/25 04:19:22;;;;;;;7.13;5.90;;;17.20;93.70;;;;;;5067977;28;20201;-73
2021/06/25 04:21:48;;;;;;;6.13;5.10;;;17.10;93.10;;;;;;5068775;28;20200;-73
2021/06/25 04:24:13;;;;;;;5.83;4.70;;;17.10;92.40;;;;;;5065148;28;20239;-72
2021/06/25 04:26:39;;;;;;;6.63;5.67;;;17.20;92.10;;;;;;5064010;28;20188;-72
2021/06/25 04:29:11;;;;;;;8.33;6.60;;;17.20;91.60;;;;;;5064112;28;20315;-73
2021/06/25 04:31:38;;;;;;;11.60;9.03;;;17.30;91.50;;;;;;5043263;28;20201;-72
2021/06/25 04:34:05;;;;;;;11.07;9.47;;;17.30;91.70;;;;;;5067789;28;20962;-72
2021/06/25 04:36:30;;;;;;;15.67;12.10;;;17.30;91.60;;;;;;5067633;28;20245;-73
2021/06/25 04:38:56;;;;;;;13.73;11.83;;;17.40;90.80;;;;;;5041656;28;20196;-72
2021/06/25 04:41:22;;;;;;;15.70;12.60;;;17.30;90.60;;;;;;5065269;28;20644;-72
2021/06/25 04:43:47;;;;;;;21.17;15.10;;;17.40;90.70;;;;;;5064608;28;20191;-72
2021/06/25 04:46:13;;;;;;;17.23;14.30;;;17.30;90.20;;;;;;5063252;28;20280;-73
2021/06/25 04:48:42;;;;;;;19.17;15.00;;;17.30;89.80;;;;;;5043709;28;20555;-73
2021/06/25 04:51:07;;;;;;;22.73;15.10;;;17.30;89.30;;;;;;5064652;28;20540;-72
2021/06/25 04:53:33;;;;;;;21.83;15.90;;;17.40;89.40;;;;;;5063007;28;20199;-72
2021/06/25 04:55:58;;;;;;;21.57;16.97;;;17.40;89.10;;;;;;5047428;28;20185;-72
2021/06/25 04:58:27;;;;;;;23.67;18.13;;;17.40;88.10;;;;;;5044376;28;20209;-73
2021/06/25 05:00:53;;;;;;;27.97;19.63;;;17.40;87.50;;;;;;5060187;28;20191;-73
2021/06/25 05:03:18;;;;;;;29.97;20.67;;;17.40;88.10;;;;;;5063453;28;20323;-73
2021/06/25 05:05:45;;;;;;;28.43;20.90;;;17.30;86.60;;;;;;5061820;28;20192;-73
2021/06/25 05:08:11;;;;;;;28.33;21.50;;;17.30;87.30;;;;;;5069399;28;20199;-73
2021/06/25 05:10:37;;;;;;;28.77;20.57;;;17.20;87.20;;;;;;5047098;28;20240;-72
2021/06/25 05:13:03;;;;;;;28.70;21.03;;;17.20;87.20;;;;;;5051605;28;20230;-72
2021/06/25 05:15:29;;;;;;;28.57;21.37;;;17.30;87.30;;;;;;5059579;28;20188;-72
2021/06/25 05:17:55;;;;;;;30.07;21.80;;;17.30;83.80;;;;;;5068204;28;20196;-72
2021/06/25 05:20:21;;;;;;;27.87;20.73;;;17.30;85.10;;;;;;5063975;28;20287;-72
2021/06/25 05:22:47;;;;;;;29.90;22.53;;;17.40;82.90;;;;;;5060541;28;20199;-72
2021/06/25 05:25:13;;;;;;;31.40;21.73;;;17.40;82.00;;;;;;5062612;28;20188;-72
2021/06/25 05:27:39;;;;;;;26.13;20.60;;;17.40;81.30;;;;;;5062469;28;20179;-72
2021/06/25 05:30:06;;;;;;;27.27;21.10;;;17.40;80.20;;;;;;5061902;28;20315;-72
2021/06/25 05:32:33;;;;;;;27.47;20.10;;;17.40;83.30;;;;;;5061401;28;20278;-72
2021/06/25 05:34:59;;;;;;;25.13;19.63;;;17.60;82.70;;;;;;5062090;28;20185;-72
2021/06/25 05:37:25;;;;;;;27.60;20.27;;;17.80;78.60;;;;;;5063030;28;20278;-72
2021/06/25 05:39:51;;;;;;;24.60;19.63;;;17.90;72.70;;;;;;5063206;28;20192;-72
2021/06/25 05:42:16;;;;;;;28.97;21.33;;;17.90;78.80;;;;;;5042354;28;20193;-72
2021/06/25 05:44:42;;;;;;;28.20;20.07;;;17.90;78.30;;;;;;5063378;28;20203;-72
2021/06/25 05:47:08;;;;;;;24.63;19.70;;;18.00;77.20;;;;;;5062123;28;20200;-72
2021/06/25 05:49:34;;;;;;;28.63;20.63;;;18.30;73.90;;;;;;5057348;28;20219;-73
2021/06/25 05:52:00;;;;;;;25.20;19.57;;;;;;;;;;5065662;28;20197;-72
2021/06/25 05:54:25;;;;;;;22.83;18.30;;;18.40;70.70;;;;;;5047741;28;20313;-72
2021/06/25 05:56:51;;;;;;;25.13;19.73;;;18.40;67.80;;;;;;5062492;28;20273;-72
2021/06/25 05:59:17;;;;;;;25.43;18.70;;;18.50;64.80;;;;;;5060980;28;20282;-72
2021/06/25 06:01:43;;;;;;;28.43;19.30;;;18.50;66.30;;;;;;5063067;28;20187;-72
2021/06/25 06:04:08;;;;;;;22.67;18.30;;;18.60;65.70;;;;;;5066711;28;20196;-73
2021/06/25 06:06:34;;;;;;;22.53;17.70;;;18.60;65.20;;;;;;5064315;28;20650;-73
2021/06/25 06:09:02;;;;;;;23.63;17.83;;;18.70;65.80;;;;;;5065499;28;20354;-72
2021/06/25 06:11:27;;;;;;;20.40;16.73;;;18.80;66.90;;;;;;5060979;28;20205;-73
2021/06/25 06:13:53;;;;;;;18.83;15.90;;;19.10;63.30;;;;;;5062265;28;20186;-72
2021/06/25 06:16:18;;;;;;;19.17;16.10;;;19.30;64.90;;;;;;5057678;28;20654;-73
2021/06/25 06:18:48;;;;;;;19.03;15.10;;;19.50;59.90;;;;;;5064791;28;20303;-73
2021/06/25 06:21:16;;;;;;;17.90;15.47;;;19.70;61.90;;;;;;5065108;28;20201;-73
2021/06/25 06:32:10;;;;;;;17.17;13.23;;;19.70;57.00;;;;;;5059772;28;20195;-75
2021/06/25 06:34:37;;;;;;;14.73;12.93;;;20.10;55.40;;;;;;5058391;28;20189;-69
2021/06/25 06:37:03;;;;;;;14.10;12.63;;;20.40;55.70;;;;;;5054775;28;20195;-69
2021/06/25 06:39:29;;;;;;;14.70;12.17;;;20.60;50.70;;;;;;5036218;28;20211;-69
2021/06/25 06:41:56;;;;;;;13.10;11.17;;;20.70;46.90;;;;;;5034018;28;20192;-68
2021/06/25 06:44:21;;;;;;;13.97;10.30;;;20.50;46.80;;;;;;5052822;28;20182;-69
2021/06/25 06:46:47;;;;;;;13.00;11.60;;;20.40;48.40;;;;;;5051544;28;20554;-69
2021/06/25 06:49:13;;;;;;;14.07;11.90;;;20.20;48.90;;;;;;5053477;28;20215;-70
2021/06/25 06:51:41;;;;;;;16.37;12.23;;;20.30;49.60;;;;;;5051609;28;20190;-69
2021/06/25 06:54:08;;;;;;;14.87;12.73;;;20.40;48.30;;;;;;5054298;28;20243;-69
2021/06/25 06:56:34;;;;;;;13.03;11.63;;;20.30;48.00;;;;;;5058280;28;20347;-69
2021/06/25 06:59:00;;;;;;;13.07;11.70;;;20.40;45.00;;;;;;5061293;28;20216;-69
2021/06/25 07:01:27;;;;;;;13.20;11.80;;;20.30;46.60;;;;;;5056749;28;20189;-69
2021/06/25 07:03:53;;;;;;;15.63;13.83;;;20.20;48.50;;;;;;5058709;28;20229;-69
2021/06/25 07:06:18;;;;;;;14.17;11.40;;;20.50;46.70;;;;;;5051149;28;20229;-69
2021/06/25 07:08:45;;;;;;;11.03;9.93;;;20.60;42.30;;;;;;5051091;28;20196;-69
2021/06/25 07:11:11;;;;;;;10.90;9.37;;;20.80;41.40;;;;;;5054161;28;20637;-70
2021/06/25 07:13:36;;;;;;;13.63;12.10;;;21.30;38.80;;;;;;5049328;28;22713;-70
2021/06/25 07:16:02;;;;;;;16.20;12.40;;;21.50;41.60;;;;;;5032020;28;20228;-69
2021/06/25 07:18:28;;;;;;;16.80;13.33;;;21.30;39.90;;;;;;5051808;28;20241;-69
2021/06/25 07:20:53;;;;;;;18.50;14.77;;;21.30;38.40;;;;;;5053121;28;20221;-69
2021/06/25 07:23:19;;;;;;;16.97;14.77;;;20.80;40.90;;;;;;5051316;28;20201;-69
2021/06/25 07:25:45;;;;;;;17.00;15.20;;;20.70;43.00;;;;;;5045630;28;22404;-70
2021/06/25 07:28:11;;;;;;;20.50;15.40;;;20.80;42.00;;;;;;5051389;28;20294;-70
2021/06/25 07:30:37;;;;;;;21.27;17.20;;;20.80;42.50;;;;;;5053376;28;20223;-69
2021/06/25 07:33:04;;;;;;;21.17;15.97;;;20.70;42.40;;;;;;5056026;28;21132;-69
2021/06/25 07:35:30;;;;;;;19.80;15.87;;;20.70;42.70;;;;;;5053300;28;20264;-70
2021/06/25 07:37:55;;;;;;;21.60;17.37;;;20.70;42.30;;;;;;5053708;28;20627;-70
2021/06/25 07:40:21;;;;;;;23.30;17.13;;;20.60;41.80;;;;;;5049908;28;20227;-68
2021/06/25 07:42:48;;;;;;;23.03;17.53;;;20.50;41.80;;;;;;5058049;28;20252;-70
2021/06/25 07:45:14;;;;;;;20.80;16.43;;;20.60;40.00;;;;;;5051361;28;20247;-70
2021/06/25 07:47:42;;;;;;;24.10;17.27;;;20.20;42.40;;;;;;5053021;28;20188;-68
2021/06/25 07:50:11;;;;;;;22.17;18.63;;;20.20;43.10;;;;;;5055261;28;20223;-69
2021/06/25 07:52:37;;;;;;;27.53;19.17;;;20.20;41.50;;;;;;5060939;28;20337;-69
2021/06/25 07:55:04;;;;;;;22.60;16.47;;;20.20;43.00;;;;;;5058205;28;20698;-69
2021/06/25 07:57:30;;;;;;;21.97;17.70;;;20.50;43.00;;;;;;5059491;28;20319;-69
2021/06/25 07:59:55;;;;;;;22.90;17.70;;;20.40;40.70;;;;;;5038673;28;20666;-69
2021/06/25 08:02:21;;;;;;;22.27;17.17;;;20.60;39.80;;;;;;5060416;28;20200;-69
2021/06/25 08:04:47;;;;;;;21.43;17.53;;;20.60;40.30;;;;;;5060241;28;20202;-69
2021/06/25 08:07:16;;;;;;;20.63;16.60;;;20.90;36.40;;;;;;5058663;28;20201;-69
2021/06/25 08:09:43;;;;;;;24.20;17.97;;;20.90;37.90;;;;;;5056771;28;20287;-69
2021/06/25 08:12:10;;;;;;;20.53;15.10;;;21.20;35.20;;;;;;5057954;28;20203;-68
2021/06/25 08:14:37;;;;;;;21.43;16.47;;;20.90;34.30;;;;;;5038161;28;20241;-69
2021/06/25 08:17:04;;;;;;;21.43;15.20;;;21.00;35.20;;;;;;5055904;28;20270;-68
2021/06/25 08:19:29;;;;;;;20.23;15.40;;;21.00;34.60;;;;;;5056233;28;20207;-68
2021/06/25 08:21:56;;;;;;;18.60;13.53;;;21.00;34.40;;;;;;5057111;28;20215;-69
2021/06/25 08:24:21;;;;;;;19.00;14.47;;;21.20;31.80;;;;;;5060513;28;20314;-70
2021/06/25 08:26:47;;;;;;;17.87;15.23;;;21.30;31.80;;;;;;5051276;28;20660;-69
2021/06/25 08:29:12;;;;;;;19.17;14.90;;;21.50;33.00;;;;;;5061183;28;20229;-69
2021/06/25 08:31:38;;;;;;;19.43;14.43;;;21.60;33.00;;;;;;5056764;28;20656;-69
2021/06/25 08:34:05;;;;;;;19.43;16.03;;;21.70;31.50;;;;;;5057015;28;20197;-69
2021/06/25 08:36:31;;;;;;;20.70;16.50;;;21.90;31.70;;;;;;5062910;28;20599;-68
2021/06/25 08:38:57;;;;;;;20.20;15.87;;;21.90;32.00;;;;;;5061359;28;20202;-69
2021/06/25 08:41:23;;;;;;;21.60;17.57;;;21.80;29.50;;;;;;5059811;28;20197;-69
2021/06/25 08:43:49;;;;;;;22.63;16.93;;;21.70;30.00;;;;;;5062016;28;20202;-69
2021/06/25 08:46:16;;;;;;;22.40;16.80;;;21.70;30.40;;;;;;5059341;28;20217;-69
2021/06/25 08:48:47;;;;;;;22.90;17.90;;;21.60;29.40;;;;;;5059765;28;20302;-69
2021/06/25 08:51:12;;;;;;;19.33;15.97;;;21.50;30.30;;;;;;5059450;28;20221;-69
2021/06/25 08:53:38;;;;;;;21.93;18.23;;;21.50;29.70;;;;;;5042542;28;20670;-69
2021/06/25 08:56:04;;;;;;;20.27;17.63;;;21.60;31.30;;;;;;5042289;28;20648;-70
2021/06/25 08:58:30;;;;;;;23.57;18.53;;;21.80;29.40;;;;;;5060668;28;20205;-69
2021/06/25 09:00:57;;;;;;;24.47;17.93;;;21.80;29.60;;;;;;5058743;28;20197;-69
2021/06/25 09:03:26;;;;;;;26.20;19.10;;;22.00;29.60;;;;;;5060404;28;20570;-69
2021/06/25 09:05:53;;;;;;;24.43;19.37;;;21.90;29.50;;;;;;5040248;28;20212;-69
2021/06/25 09:08:29;;;;;;;28.40;21.03;;;22.10;29.70;;;;;;5060452;28;20190;-69
2021/06/25 09:10:58;;;;;;;28.47;20.97;;;22.00;29.70;;;;;;5058006;28;20237;-70
2021/06/25 09:13:37;;;;;;;27.50;21.23;;;21.90;29.60;;;;;;5060201;28;20178;-70
2021/06/25 09:16:21;;;;;;;28.60;19.73;;;21.70;30.00;;;;;;5041412;28;20194;-68
2021/06/25 09:19:04;;;;;;;24.53;17.70;;;22.00;29.60;;;;;;5059309;28;20322;-70
2021/06/25 09:21:33;;;;;;;24.70;18.23;;;22.20;27.90;;;;;;5058274;28;20202;-70
2021/06/25 09:24:15;;;;;;;20.57;17.70;;;22.20;27.70;;;;;;5035702;28;20201;-69
2021/06/25 09:26:41;;;;;;;20.13;16.03;;;22.50;29.80;;;;;;5054200;28;20265;-68
2021/06/25 09:29:14;;;;;;;18.93;14.67;;;22.90;25.10;;;;;;5058248;28;20361;-68
2021/06/25 09:31:40;;;;;;;20.37;15.17;;;23.10;22.80;;;;;;5058289;28;20215;-71
2021/06/25 09:34:07;;;;;;;18.00;14.63;;;23.00;21.50;;;;;;5060107;28;20657;-70
2021/06/25 09:36:38;;;;;;;15.80;13.30;;;23.20;22.90;;;;;;5041106;28;20192;-70
2021/06/25 09:39:12;;;;;;;15.40;13.70;;;23.10;21.40;;;;;;5058328;28;20373;-71
2021/06/25 09:41:41;;;;;;;16.07;12.23;;;23.30;20.90;;;;;;5058851;28;20194;-69
2021/06/25 09:44:15;;;;;;;16.73;13.17;;;23.30;22.20;;;;;;5057386;28;20324;-69
2021/06/25 09:46:42;;;;;;;15.17;13.30;;;23.30;19.70;;;;;;5057877;28;20192;-69
2021/06/25 09:49:09;;;;;;;15.97;13.53;;;23.10;22.20;;;;;;5058363;28;20761;-69
2021/06/25 09:51:36;;;;;;;18.03;14.50;;;23.20;20.60;;;;;;5040730;28;20193;-69
2021/06/25 09:54:07;;;;;;;18.43;15.13;;;23.70;20.40;;;;;;5058699;28;20194;-69
2021/06/25 09:56:39;;;;;;;19.90;15.97;;;23.90;20.60;;;;;;5059902;28;20195;-69
2021/06/25 10:02:17;;;;;;;19.17;16.33;;;23.70;18.40;;;;;;5059242;28;20631;-69
2021/06/25 10:04:44;;;;;;;19.67;15.90;;;23.20;19.80;;;;;;5062242;28;20195;-69
2021/06/25 10:07:31;;;;;;;19.93;16.30;;;22.80;19.60;;;;;;5059940;28;20192;-69
2021/06/25 10:10:07;;;;;;;19.73;15.63;;;23.10;20.70;;;;;;5041101;28;20715;-69
2021/06/25 10:12:37;;;;;;;16.40;13.37;;;23.60;18.80;;;;;;5040159;28;20228;-69
2021/06/25 10:15:03;;;;;;;18.00;15.60;;;24.10;18.10;;;;;;5059760;28;20197;-69
2021/06/25 10:17:30;;;;;;;17.03;15.23;;;24.10;17.70;;;;;;5058353;28;20204;-69
2021/06/25 10:20:04;;;;;;;17.90;14.63;;;23.80;17.60;;;;;;5059679;28;20293;-69
2021/06/25 10:22:30;;;;;;;19.60;16.03;;;23.70;18.20;;;;;;5060136;28;20200;-69
2021/06/25 10:24:57;;;;;;;18.97;15.13;;;23.30;17.60;;;;;;5044545;28;20199;-69
2021/06/25 10:27:23;;;;;;;18.73;13.90;;;22.80;20.30;;;;;;5042194;28;20191;-69
2021/06/25 10:29:50;;;;;;;15.37;13.50;;;23.20;19.10;;;;;;5060013;28;20269;-69
2021/06/25 10:32:17;;;;;;;16.87;13.83;;;23.40;18.90;;;;;;5043378;28;20192;-69
2021/06/25 10:34:44;;;;;;;19.87;14.80;;;23.30;18.00;;;;;;5061093;28;20190;-69
2021/06/25 10:37:16;;;;;;;19.23;14.67;;;23.30;18.50;;;;;;5060168;28;20333;-68
2021/06/25 10:39:41;;;;;;;17.43;13.90;;;23.20;18.30;;;;;;5060334;28;20214;-69
2021/06/25 10:42:09;;;;;;;16.10;13.30;;;23.20;16.80;;;;;;5045744;28;20656;-70
2021/06/25 10:44:55;;;;;;;15.37;13.77;;;23.40;15.20;;;;;;5059200;28;20196;-70
2021/06/25 10:47:28;;;;;;;18.53;13.97;;;23.20;16.30;;;;;;5057828;28;20642;-70
2021/06/25 10:50:04;;;;;;;19.43;14.37;;;23.40;16.20;;;;;;5058965;28;20227;-69
2021/06/25 10:52:54;;;;;;;17.87;15.13;;;23.40;17.40;;;;;;5057955;28;20251;-68
2021/06/25 10:55:24;;;;;;;18.33;14.57;;;23.60;18.20;;;;;;5055324;28;20192;-71
2021/06/25 10:57:50;;;;;;;19.17;14.50;;;23.90;16.40;;;;;;5058681;28;20525;-71
2021/06/25 11:00:38;;;;;;;19.70;15.23;;;24.00;15.70;;;;;;5040266;28;20208;-70
2021/06/25 11:03:05;;;;;;;20.50;15.30;;;24.10;15.70;;;;;;5058175;28;20272;-71
2021/06/25 11:05:34;;;;;;;20.63;15.30;;;24.00;15.60;;;;;;5058591;28;20197;-71
2021/06/25 11:08:13;;;;;;;19.37;15.13;;;24.30;14.30;;;;;;5039601;28;20191;-68
2021/06/25 11:10:52;;;;;;;20.13;15.30;;;24.40;13.80;;;;;;5055687;28;20652;-68
2021/06/25 11:13:23;;;;;;;21.60;15.15;;;24.60;12.10;;;;;;5055820;28;20205;-70
2021/06/25 11:15:56;;;;;;;21.42;16.50;;;24.60;13.60;;;;;;5058503;28;20199;-70
2021/06/25 11:18:30;;;;;;;22.27;17.03;;;24.50;13.60;;;;;;5059620;28;20828;-70
2021/06/25 11:21:01;;;;;;;20.33;16.43;;;24.20;14.00;;;;;;5057282;28;20221;-70
2021/06/25 11:23:33;;;;;;;19.70;15.53;;;24.00;14.70;;;;;;5036181;28;20188;-72
2021/06/25 11:26:00;;;;;;;22.23;17.33;;;24.00;14.60;;;;;;5059465;28;20298;-71
2021/06/25 11:28:32;;;;;;;19.93;16.13;;;23.90;15.50;;;;;;5056822;28;20196;-72
2021/06/25 11:31:03;;;;;;;19.70;15.57;;;24.00;15.60;;;;;;5061895;28;20728;-72
2021/06/25 11:33:55;;;;;;;20.00;15.30;;;24.40;14.10;;;;;;5061198;28;20186;-68
2021/06/25 11:36:40;;;;;;;17.60;14.50;;;24.70;14.50;;;;;;5058193;28;20615;-69
2021/06/25 11:39:10;;;;;;;22.53;16.07;;;25.10;13.80;;;;;;5057872;28;20237;-68
2021/06/25 11:41:44;;;;;;;18.98;14.80;;;24.90;14.00;;;;;;5057737;28;20234;-69
2021/06/25 11:44:13;;;;;;;23.63;16.43;;;24.90;14.00;;;;;;5058474;28;20738;-73
2021/06/25 11:46:41;;;;;;;20.23;15.88;;;25.00;12.80;;;;;;5054750;28;20201;-73
2021/06/25 11:49:07;;;;;;;17.75;15.02;;;24.50;13.00;;;;;;5059896;28;20619;-73
2021/06/25 11:51:39;;;;;;;15.93;13.45;;;25.20;13.60;;;;;;5061478;28;20189;-73
2021/06/25 11:54:07;;;;;;;17.85;14.30;;;26.10;11.60;;;;;;5059482;28;20199;-73
2021/06/25 11:56:34;;;;;;;16.27;13.23;;;26.10;10.10;;;;;;5059243;28;20188;-73
2021/06/25 11:59:06;;;;;;;13.02;11.50;;;25.70;10.10;;;;;;5044386;28;20212;-72
2021/06/25 12:01:34;;;;;;;12.65;11.32;;;25.70;10.20;;;;;;5047007;28;20475;-73
2021/06/25 12:04:00;;;;;;;15.98;12.75;;;25.20;11.30;;;;;;5059427;28;20192;-73
2021/06/25 12:06:27;;;;;;;15.25;12.77;;;24.10;13.20;;;;;;5059840;28;20235;-73
2021/06/25 12:08:54;;;;;;;15.48;12.98;;;24.70;13.40;;;;;;5057393;28;20190;-73
2021/06/25 12:11:21;;;;;;;17.48;13.80;;;26.10;10.80;;;;;;5061809;28;20319;-73
2021/06/25 12:14:05;;;;;;;14.35;12.27;;;26.00;9.10;;;;;;5062685;28;20197;-73
2021/06/25 12:16:33;;;;;;;15.85;13.38;;;25.30;11.60;;;;;;5063799;28;20181;-73
2021/06/25 12:19:00;;;;;;;14.32;12.65;;;25.10;11.80;;;;;;5062144;28;20201;-73
2021/06/25 12:21:27;;;;;;;13.85;12.43;;;24.80;12.20;;;;;;5062325;28;20211;-70
2021/06/25 12:23:57;;;;;;;14.23;11.32;;;24.20;12.70;;;;;;5062603;28;20196;-74
2021/06/25 12:26:25;;;;;;;12.75;10.40;;;25.20;11.50;;;;;;5059568;28;20186;-73
2021/06/25 12:28:58;;;;;;;10.27;9.23;;;26.70;7.40;;;;;;5064493;28;20190;-73
2021/06/25 12:31:34;;;;;;;10.50;9.40;;;27.00;7.00;;;;;;5060974;28;20242;-73
2021/06/25 12:34:12;;;;;;;11.20;9.40;;;27.20;7.00;;;;;;5060415;28;20197;-73
2021/06/25 12:36:38;;;;;;;10.27;8.85;;;27.60;6.00;;;;;;5040758;28;20200;-74
2021/06/25 12:39:08;;;;;;;11.85;10.27;;;28.00;5.70;;;;;;5060147;28;20265;-74
2021/06/25 12:41:45;;;;;;;11.20;9.75;;;27.20;5.40;;;;;;5062473;28;20192;-73
2021/06/25 12:44:12;;;;;;;10.30;9.27;;;26.60;8.20;;;;;;5040655;28;20190;-72
2021/06/25 12:46:38;;;;;;;10.02;8.98;;;26.00;8.80;;;;;;5060640;28;20651;-71
2021/06/25 12:49:06;;;;;;;12.20;9.63;;;26.20;8.90;;;;;;5047655;28;20509;-72